Time;durP1;ratioP1;P1;durP2;ratioP2;P2;SDS_P1;SDS_P2;PMS_P1;PMS_P2;Temp;Humidity;BMP_temperature;BMP_pressure;BME280_temperature;BME280_humidity;BME280_pressure;Samples;Min_cycle;Max_cycle;Signal;HPM_P1;HPM_P2
2023/08/18 00:00:00;;;;;;;37.63;19.48;;;;;;;19.06;100.00;100685.97;8311308;28;20049;-63
2023/08/18 00:04:01;;;;;;;40.15;20.77;;;;;;;19.13;100.00;100692.34;8311118;28;20052;-64
2023/08/18 00:08:01;;;;;;;43.97;21.58;;;;;;;19.17;100.00;100687.34;8304810;28;20065;-66
2023/08/18 00:12:02;;;;;;;33.45;18.13;;;;;;;19.02;100.00;100684.66;8310303;28;20056;-66
2023/08/18 00:16:02;;;;;;;40.42;19.40;;;;;;;19.09;100.00;100690.22;8307116;28;20099;-66
2023/08/18 00:20:03;;;;;;;35.92;17.88;;;;;;;19.05;100.00;100687.00;8308010;28;20152;-66
2023/08/18 00:24:04;;;;;;;33.10;17.83;;;;;;;18.92;100.00;100681.34;8310440;28;20065;-66
2023/08/18 00:28:05;;;;;;;30.67;16.45;;;;;;;18.91;100.00;100676.91;8308695;28;20068;-65
2023/08/18 00:32:06;;;;;;;30.35;17.48;;;;;;;18.87;100.00;100681.06;8307843;28;21211;-66
2023/08/18 00:36:07;;;;;;;34.22;16.80;;;;;;;18.66;100.00;100664.53;8308001;28;20449;-64
2023/08/18 00:40:09;;;;;;;30.75;16.90;;;;;;;18.65;100.00;100664.72;8307333;28;20038;-64
2023/08/18 00:44:09;;;;;;;30.67;16.40;;;;;;;18.53;100.00;100656.13;8309306;28;20495;-66
2023/08/18 00:48:10;;;;;;;55.60;21.20;;;;;;;18.64;100.00;100646.59;8309576;28;20414;-66
2023/08/18 00:52:10;;;;;;;49.72;20.15;;;;;;;18.59;100.00;100649.91;8305732;28;20049;-66
2023/08/18 00:56:13;;;;;;;49.75;19.55;;;;;;;18.49;100.00;100657.56;8307742;28;20521;-64
2023/08/18 01:00:14;;;;;;;36.38;18.10;;;;;;;18.41;100.00;100657.63;8301482;28;20062;-66
2023/08/18 01:04:14;;;;;;;41.38;17.85;;;;;;;18.43;100.00;100643.75;8308857;28;20048;-66
2023/08/18 01:08:15;;;;;;;41.13;15.90;;;;;;;18.31;100.00;100647.97;8305512;28;20088;-59
2023/08/18 01:12:42;;;;;;;35.40;15.95;;;;;;;18.23;100.00;100659.84;8308409;28;20037;-59
2023/08/18 01:16:51;;;;;;;30.92;15.02;;;;;;;18.22;100.00;100662.75;8294843;28;20033;-59
2023/08/18 01:20:53;;;;;;;27.02;14.63;;;;;;;18.28;100.00;100651.94;8305341;28;20312;-59
2023/08/18 01:25:00;;;;;;;27.52;13.88;;;;;;;18.20;100.00;100649.28;8305907;28;20038;-59
2023/08/18 01:29:01;;;;;;;34.60;17.05;;;;;;;18.15;100.00;100649.00;8302934;28;20045;-59
2023/08/18 01:33:11;;;;;;;32.17;17.55;;;;;;;18.17;100.00;100652.38;8309310;28;20418;-59
2023/08/18 01:37:14;;;;;;;36.88;17.83;;;;;;;18.28;100.00;100651.94;8306401;28;20034;-59
2023/08/18 01:41:19;;;;;;;32.33;16.38;;;;;;;18.36;100.00;100632.66;8306072;28;20052;-59
2023/08/18 01:45:19;;;;;;;32.97;16.40;;;;;;;18.36;100.00;100621.72;8306505;28;20041;-59
2023/08/18 01:49:20;;;;;;;38.67;19.23;;;;;;;18.38;100.00;100625.16;8287743;28;20042;-59
2023/08/18 01:53:21;;;;;;;31.08;16.23;;;;;;;18.40;100.00;100616.75;8305894;28;20045;-58
2023/08/18 01:57:22;;;;;;;37.40;17.92;;;;;;;18.32;100.00;100617.66;8305596;28;20121;-66
2023/08/18 02:01:22;;;;;;;38.90;17.38;;;;;;;18.19;100.00;100619.34;8303079;28;20033;-59
2023/08/18 02:05:23;;;;;;;30.30;16.63;;;;;;;17.96;100.00;100621.31;8308135;28;20037;-59
2023/08/18 02:09:23;;;;;;;35.58;18.25;;;;;;;18.03;100.00;100620.38;8303452;28;20038;-58
2023/08/18 02:13:24;;;;;;;41.45;20.15;;;;;;;18.14;100.00;100622.66;8304378;28;20042;-58
2023/08/18 02:17:29;;;;;;;40.55;17.55;;;;;;;18.19;100.00;100625.69;8306399;28;20034;-58
2023/08/18 02:21:31;;;;;;;45.10;19.77;;;;;;;18.16;100.00;100620.59;8301195;28;20037;-59
2023/08/18 02:25:31;;;;;;;52.80;22.58;;;;;;;18.36;100.00;100609.94;8306020;28;20046;-66
2023/08/18 02:29:32;;;;;;;50.17;22.38;;;;;;;18.36;100.00;100627.19;8306493;28;20054;-58
2023/08/18 02:33:33;;;;;;;59.55;23.83;;;;;;;18.37;100.00;100623.47;8304478;28;20050;-58
2023/08/18 02:37:34;;;;;;;73.88;24.83;;;;;;;18.58;100.00;100617.22;8306573;28;20066;-59
2023/08/18 02:41:34;;;;;;;100.38;25.70;;;;;;;18.58;100.00;100623.56;8306784;28;20518;-59
2023/08/18 02:45:35;;;;;;;87.93;25.05;;;;;;;18.67;100.00;100619.66;8300897;28;20044;-57
2023/08/18 02:49:35;;;;;;;91.22;26.45;;;;;;;18.69;100.00;100608.53;8304640;28;20520;-58
2023/08/18 02:53:38;;;;;;;89.80;25.48;;;;;;;18.70;100.00;100613.81;8304671;28;20049;-58
2023/08/18 02:57:38;;;;;;;86.28;25.50;;;;;;;18.70;100.00;100610.25;8297991;28;20511;-59
2023/08/18 03:01:39;;;;;;;82.03;26.20;;;;;;;18.73;100.00;100613.44;8300731;28;20466;-57
2023/08/18 03:05:39;;;;;;;84.90;27.70;;;;;;;18.77;100.00;100619.38;8304225;28;20041;-59
2023/08/18 03:09:42;;;;;;;85.85;27.50;;;;;;;18.81;100.00;100616.06;8303085;28;20507;-58
2023/08/18 03:13:42;;;;;;;91.53;29.10;;;;;;;18.85;100.00;100622.84;8305328;28;20092;-60
2023/08/18 03:17:43;;;;;;;78.85;27.60;;;;;;;18.85;100.00;100613.81;8305689;28;20046;-60
2023/08/18 03:21:43;;;;;;;88.22;29.20;;;;;;;18.88;100.00;100616.16;8304236;28;20045;-58
2023/08/18 03:25:44;;;;;;;87.75;28.50;;;;;;;18.88;100.00;100611.53;8304874;28;20041;-59
2023/08/18 03:29:44;;;;;;;77.57;26.63;;;;;;;18.87;100.00;100609.81;8304058;28;20038;-58
2023/08/18 03:33:45;;;;;;;83.43;28.00;;;;;;;18.82;100.00;100600.50;8308137;28;20056;-58
2023/08/18 03:37:51;;;;;;;85.80;27.67;;;;;;;18.84;100.00;100604.72;8306755;28;20133;-60
2023/08/18 03:41:51;;;;;;;75.85;28.63;;;;;;;18.81;100.00;100610.59;8310676;28;20038;-59
2023/08/18 03:45:52;;;;;;;104.50;25.38;;;;;;;18.81;100.00;100610.59;8310550;28;20049;-59
2023/08/18 03:49:53;;;;;;;91.05;27.58;;;;;;;18.84;100.00;100618.44;8310115;28;20107;-60
2023/08/18 03:53:55;;;;;;;110.95;30.02;;;;;;;18.88;100.00;100627.13;8306052;28;20037;-61
2023/08/18 03:57:55;;;;;;;102.82;29.23;;;;;;;18.90;100.00;100625.03;8310457;28;20124;-60
2023/08/18 04:01:55;;;;;;;99.97;30.58;;;;;;;18.91;100.00;100622.09;8311039;28;20050;-59
2023/08/18 04:05:56;;;;;;;100.97;28.50;;;;;;;18.94;100.00;100624.44;8310787;28;20057;-58
2023/08/18 04:09:57;;;;;;;98.03;30.13;;;;;;;18.94;100.00;100626.38;8310929;28;20037;-58
2023/08/18 04:13:58;;;;;;;91.43;28.83;;;;;;;18.98;100.00;100623.06;8310652;28;20049;-60
2023/08/18 04:17:58;;;;;;;98.32;30.30;;;;;;;18.93;100.00;100622.75;8302098;28;20068;-59
2023/08/18 04:21:59;;;;;;;90.93;29.35;;;;;;;18.92;100.00;100618.34;8301278;28;20092;-60
2023/08/18 04:26:02;;;;;;;102.50;27.80;;;;;;;18.91;100.00;100626.75;8305119;28;20045;-64
2023/08/18 04:30:04;;;;;;;97.40;27.45;;;;;;;18.94;100.00;100629.09;8308678;28;20089;-64
2023/08/18 04:34:07;;;;;;;101.43;28.23;;;;;;;18.94;100.00;100620.88;8306435;28;20533;-64
2023/08/18 04:38:08;;;;;;;97.60;28.48;;;;;;;18.92;100.00;100622.97;8290398;28;20041;-64
2023/08/18 04:42:10;;;;;;;99.18;30.17;;;;;;;19.00;100.00;100626.44;8309912;28;20172;-66
2023/08/18 04:46:10;;;;;;;94.00;27.83;;;;;;;18.97;100.00;100620.50;8307848;28;20042;-66
2023/08/18 04:50:12;;;;;;;109.55;29.75;;;;;;;18.99;100.00;100627.47;8307024;28;20051;-65
2023/08/18 04:54:12;;;;;;;114.35;30.90;;;;;;;19.01;100.00;100632.78;8307692;28;20042;-64
2023/08/18 04:58:13;;;;;;;104.57;29.83;;;;;;;18.99;100.00;100622.00;8308809;28;20033;-66
2023/08/18 05:02:14;;;;;;;127.32;29.35;;;;;;;19.00;100.00;100629.16;8309313;28;20040;-65
2023/08/18 05:06:14;;;;;;;95.13;28.45;;;;;;;18.99;100.00;100630.22;8312734;28;20159;-66
2023/08/18 05:10:16;;;;;;;103.38;29.90;;;;;;;19.16;100.00;100630.84;8301943;28;20454;-64
2023/08/18 05:14:16;;;;;;;145.02;28.40;;;;;;;19.15;100.00;100624.50;8302378;28;20037;-66
2023/08/18 05:18:17;;;;;;;82.20;26.98;;;;;;;19.19;100.00;100624.97;8307581;28;20034;-66
2023/08/18 05:22:18;;;;;;;82.38;25.73;;;;;;;19.10;100.00;100623.41;8305299;28;20053;-66
2023/08/18 05:26:18;;;;;;;77.35;25.92;;;;;;;19.11;100.00;100622.34;8298437;28;20121;-66
2023/08/18 05:30:18;;;;;;;76.45;25.35;;;;;;;19.21;100.00;100634.69;8288844;28;20041;-66
2023/08/18 05:34:19;;;;;;;72.55;23.52;;;;;;;19.18;100.00;100628.75;8302114;28;20068;-65
2023/08/18 05:38:20;;;;;;;74.22;24.98;;;;;;;19.22;100.00;100630.91;8299298;28;20030;-65
2023/08/18 05:42:20;;;;;;;72.43;25.25;;;;;;;19.22;100.00;100628.16;8306406;28;20481;-57
2023/08/18 05:46:20;;;;;;;85.90;26.63;;;;;;;19.25;100.00;100635.16;8314380;28;20041;-58
2023/08/18 05:50:21;;;;;;;69.15;26.40;;;;;;;19.28;100.00;100630.16;8303767;28;20403;-59
2023/08/18 05:54:21;;;;;;;65.65;25.55;;;;;;;19.23;100.00;100618.91;8305434;28;20041;-58
2023/08/18 05:58:22;;;;;;;65.63;24.95;;;;;;;19.28;100.00;100619.19;8308438;28;20044;-59
2023/08/18 06:02:22;;;;;;;68.53;24.52;;;;;;;19.30;100.00;100621.75;8305945;28;20115;-59
2023/08/18 06:06:23;;;;;;;71.00;24.13;;;;;;;19.33;100.00;100627.69;8307463;28;20045;-59
2023/08/18 06:10:24;;;;;;;73.18;25.83;;;;;;;19.44;100.00;100624.47;8307394;28;20447;-59
2023/08/18 06:14:24;;;;;;;71.45;23.80;;;;;;;19.42;100.00;100623.78;8301754;28;20052;-58
2023/08/18 06:18:25;;;;;;;64.47;23.90;;;;;;;19.55;100.00;100625.84;8303764;28;20041;-59
2023/08/18 06:22:25;;;;;;;68.72;25.45;;;;;;;19.59;100.00;100621.66;8304232;28;20053;-59
2023/08/18 06:26:26;;;;;;;61.22;25.60;;;;;;;19.62;100.00;100623.13;8306518;28;20060;-59
2023/08/18 06:30:26;;;;;;;58.55;24.70;;;;;;;19.69;100.00;100629.53;8304904;28;20183;-59
2023/08/18 06:34:26;;;;;;;59.75;23.98;;;;;;;19.63;100.00;100638.53;8305629;28;20040;-59
2023/08/18 06:38:27;;;;;;;64.60;24.38;;;;;;;19.56;100.00;100633.00;8306515;28;20056;-59
2023/08/18 06:42:28;;;;;;;55.10;25.45;;;;;;;19.56;100.00;100640.38;8306228;28;20415;-59
2023/08/18 06:46:28;;;;;;;60.25;25.42;;;;;;;19.64;100.00;100640.25;8304845;28;20103;-59
2023/08/18 06:50:29;;;;;;;70.13;26.95;;;;;;;19.63;100.00;100655.00;8304890;28;20057;-58
2023/08/18 06:54:30;;;;;;;71.03;27.90;;;;;;;19.77;100.00;100652.22;8305950;28;20041;-58
2023/08/18 06:58:31;;;;;;;58.13;24.33;;;;;;;19.83;100.00;100650.56;8302198;28;20277;-65
2023/08/18 07:02:31;;;;;;;38.47;20.88;;;;;;;19.91;100.00;100645.78;8303659;28;20073;-64
2023/08/18 07:06:33;;;;;;;48.33;23.55;;;;;;;19.88;100.00;100642.59;8309309;28;20060;-59
2023/08/18 07:10:33;;;;;;;48.63;24.23;;;;;;;19.98;100.00;100649.47;8310924;28;20049;-59
2023/08/18 07:14:33;;;;;;;44.63;23.55;;;;;;;19.98;100.00;100643.13;8312445;28;20073;-58
2023/08/18 07:18:34;;;;;;;53.95;24.10;;;;;;;20.04;100.00;100650.56;8312910;28;20045;-59
2023/08/18 07:22:34;;;;;;;45.72;22.15;;;;;;;20.05;100.00;100644.00;8310460;28;20049;-59
2023/08/18 07:26:35;;;;;;;42.00;22.00;;;;;;;20.07;100.00;100634.50;8310592;28;20053;-59
2023/08/18 07:30:35;;;;;;;40.63;21.02;;;;;;;20.28;100.00;100639.16;8311158;28;20162;-59
2023/08/18 07:34:37;;;;;;;39.95;20.63;;;;;;;20.28;100.00;100636.44;8310800;28;20044;-59
2023/08/18 07:38:38;;;;;;;38.38;20.05;;;;;;;20.48;100.00;100634.66;8311901;28;20439;-59
2023/08/18 07:42:39;;;;;;;47.50;22.02;;;;;;;20.68;100.00;100635.63;8310873;28;20124;-59
2023/08/18 07:46:39;;;;;;;61.25;25.92;;;;;;;20.73;100.00;100635.84;8309710;28;20084;-61
2023/08/18 07:50:41;;;;;;;71.55;27.48;;;;;;;20.70;100.00;100633.50;8308231;28;20047;-60
2023/08/18 07:54:41;;;;;;;71.55;28.20;;;;;;;20.83;100.00;100633.59;8311205;28;20045;-60
2023/08/18 07:58:42;;;;;;;78.68;28.88;;;;;;;20.88;100.00;100637.41;8309808;28;20091;-60
2023/08/18 08:02:44;;;;;;;68.38;28.60;;;;;;;20.98;100.00;100642.59;8309183;28;20492;-60
2023/08/18 08:06:44;;;;;;;62.88;27.55;;;;;;;21.24;100.00;100643.53;8309843;28;20065;-59
2023/08/18 08:10:45;;;;;;;80.38;32.20;;;;;;;21.33;100.00;100635.94;8309267;28;20046;-58
2023/08/18 08:14:45;;;;;;;89.80;33.58;;;;;;;21.24;100.00;100631.69;8311092;28;20048;-59
2023/08/18 08:18:46;;;;;;;69.65;27.30;;;;;;;21.25;100.00;100638.88;8310314;28;20427;-64
2023/08/18 08:22:48;;;;;;;69.25;27.10;;;;;;;21.35;100.00;100640.16;8306778;28;20288;-63
2023/08/18 08:26:49;;;;;;;68.75;29.00;;;;;;;21.39;100.00;100657.13;8308767;28;20049;-63
2023/08/18 08:30:49;;;;;;;74.10;29.13;;;;;;;21.42;100.00;100656.72;8310655;28;20049;-63
2023/08/18 08:34:51;;;;;;;62.33;26.20;;;;;;;21.67;100.00;100656.97;8310057;28;20045;-63
2023/08/18 08:38:51;;;;;;;46.55;22.55;;;;;;;21.73;100.00;100654.22;8308313;28;20068;-63
2023/08/18 08:42:54;;;;;;;51.10;24.30;;;;;;;21.53;100.00;100653.31;8308408;28;20487;-63
2023/08/18 08:46:55;;;;;;;49.08;23.00;;;;;;;21.59;100.00;100649.75;8310309;28;20041;-64
2023/08/18 08:50:58;;;;;;;58.08;24.88;;;;;;;21.81;100.00;100644.97;8305769;28;20111;-62
2023/08/18 08:55:00;;;;;;;55.78;24.52;;;;;;;22.07;100.00;100651.31;8309777;28;20042;-63
2023/08/18 08:59:01;;;;;;;57.72;25.80;;;;;;;22.32;100.00;100644.13;8303868;28;20041;-63
2023/08/18 09:03:02;;;;;;;52.83;24.35;;;;;;;22.26;100.00;100644.97;8309746;28;20740;-63
2023/08/18 09:07:03;;;;;;;57.42;26.55;;;;;;;22.45;100.00;100646.84;8308679;28;20495;-64
2023/08/18 09:11:04;;;;;;;50.42;23.35;;;;;;;22.49;100.00;100645.38;8309005;28;20463;-63
2023/08/18 09:15:07;;;;;;;44.28;21.38;;;;;;;22.76;100.00;100647.06;8307333;28;20491;-64
2023/08/18 09:19:12;;;;;;;40.33;19.85;;;;;;;23.04;100.00;100638.47;8307600;28;20037;-61
2023/08/18 09:23:13;;;;;;;43.75;20.55;;;;;;;23.04;100.00;100644.84;8305096;28;20053;-63
2023/08/18 09:27:14;;;;;;;40.92;20.33;;;;;;;22.91;100.00;100636.59;8308644;28;20046;-59
2023/08/18 09:31:14;;;;;;;43.05;21.15;;;;;;;22.81;100.00;100644.47;8306264;28;20068;-59
2023/08/18 09:35:21;;;;;;;49.15;23.75;;;;;;;23.41;100.00;100639.56;8306671;28;20047;-59
2023/08/18 09:39:22;;;;;;;35.40;18.85;;;;;;;23.97;100.00;100632.25;8307117;28;20555;-59
2023/08/18 09:43:23;;;;;;;37.97;18.90;;;;;;;24.08;100.00;100634.25;8308042;28;20395;-59
2023/08/18 09:47:28;;;;;;;36.08;19.05;;;;;;;24.71;100.00;100635.81;8306164;28;20495;-56
2023/08/18 09:51:29;;;;;;;29.67;15.13;;;;;;;25.69;94.97;100627.09;8304712;28;20065;-57
2023/08/18 09:55:36;;;;;;;26.15;14.60;;;;;;;26.84;88.61;100627.25;8307964;28;20074;-57
2023/08/18 09:59:42;;;;;;;29.05;14.98;;;;;;;28.17;81.47;100627.69;8305972;28;20037;-57
2023/08/18 10:03:46;;;;;;;30.38;13.85;;;;;;;28.95;79.09;100620.03;8297108;28;20041;-56
2023/08/18 10:07:47;;;;;;;25.08;14.07;;;;;;;29.41;77.54;100613.97;8305256;28;20042;-57
2023/08/18 10:11:48;;;;;;;24.40;13.40;;;;;;;29.41;75.56;100608.41;8306147;28;20446;-57
2023/08/18 10:15:49;;;;;;;24.98;14.55;;;;;;;29.11;77.67;100602.47;8307080;28;20121;-57
2023/08/18 10:19:55;;;;;;;23.05;12.75;;;;;;;29.59;76.72;100588.53;8305839;28;20052;-57
2023/08/18 10:23:56;;;;;;;22.50;12.68;;;;;;;29.34;76.38;100591.06;8305180;28;20506;-57
2023/08/18 10:27:56;;;;;;;28.48;16.30;;;;;;;30.55;73.05;100604.19;8306983;28;20490;-57
2023/08/18 10:31:58;;;;;;;25.80;16.38;;;;;;;31.34;69.51;100596.53;8303248;28;20049;-57
2023/08/18 10:36:02;;;;;;;28.83;16.67;;;;;;;30.24;73.15;100591.13;8306732;28;20064;-57
2023/08/18 10:40:08;;;;;;;29.55;17.33;;;;;;;30.04;73.96;100591.75;8305161;28;20431;-61
2023/08/18 18:39:53;;;;;;;6.13;4.53;;;;;;;28.77;81.15;100283.53;8406629;27;20489;-61
2023/08/18 18:43:54;;;;;;;4.88;4.32;;;;;;;28.89;81.10;100292.56;8399260;28;20360;-61
2023/08/18 18:47:54;;;;;;;7.03;4.30;;;;;;;28.88;80.73;100292.81;8398627;28;20099;-59
2023/08/18 18:51:56;;;;;;;7.97;4.20;;;;;;;28.70;82.39;100291.28;8398273;28;20482;-59
2023/08/18 18:55:56;;;;;;;5.40;4.47;;;;;;;28.57;82.63;100300.03;8392295;28;20044;-59
2023/08/18 18:59:56;;;;;;;5.25;4.57;;;;;;;28.53;82.33;100298.88;8394644;28;20040;-59
2023/08/18 19:03:57;;;;;;;7.55;4.97;;;;;;;28.27;86.09;100288.56;8395370;28;20036;-59
2023/08/18 19:07:57;;;;;;;7.80;5.60;;;;;;;27.82;88.94;100296.31;8396227;28;20635;-59
2023/08/18 19:11:58;;;;;;;6.03;5.13;;;;;;;27.68;89.82;100308.91;8397598;28;20121;-60
2023/08/18 19:15:59;;;;;;;11.35;5.22;;;;;;;27.74;89.21;100307.88;8406376;28;20179;-60
2023/08/18 19:20:00;;;;;;;6.15;5.32;;;;;;;27.66;90.40;100305.56;8414318;28;20044;-61
2023/08/18 19:24:00;;;;;;;8.13;5.00;;;;;;;27.36;92.65;100307.91;8412300;28;20157;-61
2023/08/18 19:28:01;;;;;;;8.82;5.68;;;;;;;27.11;95.84;100324.13;8414213;28;20048;-59
2023/08/18 19:32:04;;;;;;;10.15;5.50;;;;;;;27.17;94.19;100323.13;8410729;28;20535;-59
2023/08/18 19:36:04;;;;;;;13.23;6.47;;;;;;;27.21;93.78;100315.94;8408742;28;20050;-59
2023/08/18 19:40:05;;;;;;;11.95;6.18;;;;;;;27.02;95.01;100307.06;8407556;28;20138;-63
2023/08/18 19:44:06;;;;;;;14.50;5.82;;;;;;;27.00;94.41;100314.78;8406788;28;20138;-62
2023/08/18 19:48:06;;;;;;;8.05;5.65;;;;;;;27.04;94.23;100320.69;8407021;28;20494;-62
2023/08/18 19:52:07;;;;;;;8.43;5.70;;;;;;;27.11;93.54;100327.72;8387988;28;20069;-63
2023/08/18 19:56:07;;;;;;;8.95;6.15;;;;;;;27.05;93.98;100322.34;8391210;28;20048;-63
2023/08/18 20:00:11;;;;;;;7.25;6.40;;;;;;;26.88;95.59;100335.38;8388167;28;20052;-61
2023/08/18 20:04:15;;;;;;;7.50;6.80;;;;;;;26.79;96.12;100334.94;8417646;28;20448;-62
2023/08/18 20:08:15;;;;;;;9.35;5.90;;;;;;;26.80;95.80;100337.47;8424825;28;20035;-62
2023/08/18 20:12:16;;;;;;;10.20;7.07;;;;;;;26.75;96.26;100342.09;8423026;28;20048;-62
2023/08/18 20:16:16;;;;;;;9.38;6.25;;;;;;;26.73;96.24;100342.34;8420398;28;20459;-62
2023/08/18 20:20:17;;;;;;;10.43;7.55;;;;;;;26.66;96.48;100352.75;8422143;28;20048;-62
2023/08/18 20:24:17;;;;;;;7.32;6.57;;;;;;;26.40;99.40;100342.25;8420198;28;20590;-62
2023/08/18 20:28:17;;;;;;;10.90;7.28;;;;;;;26.20;100.00;100336.28;8424426;28;20043;-63
2023/08/18 20:32:18;;;;;;;11.48;7.85;;;;;;;26.07;100.00;100344.88;8423744;28;20085;-61
2023/08/18 20:36:18;;;;;;;10.98;7.18;;;;;;;25.99;100.00;100344.44;8417239;28;20036;-61
2023/08/18 20:40:19;;;;;;;11.32;7.72;;;;;;;25.80;100.00;100340.09;8410817;28;20036;-61
2023/08/18 20:44:20;;;;;;;11.75;7.47;;;;;;;25.74;100.00;100344.69;8416445;28;20040;-62
2023/08/18 20:48:22;;;;;;;9.02;7.65;;;;;;;25.78;100.00;100347.81;8413040;28;20048;-61
2023/08/18 20:52:22;;;;;;;9.82;7.13;;;;;;;25.82;100.00;100344.31;8408635;28;20048;-63
2023/08/18 20:56:23;;;;;;;8.82;6.57;;;;;;;25.78;100.00;100337.59;8412258;28;20039;-63
2023/08/18 21:00:23;;;;;;;10.52;7.13;;;;;;;25.79;100.00;100338.41;8396740;28;20040;-65
2023/08/18 21:04:26;;;;;;;10.45;7.85;;;;;;;25.83;100.00;100345.97;8411076;28;20044;-63
2023/08/18 21:08:26;;;;;;;10.68;7.78;;;;;;;25.88;100.00;100335.03;8414404;28;20509;-61
2023/08/18 21:12:27;;;;;;;12.57;8.90;;;;;;;25.93;100.00;100332.38;8409693;28;20456;-61
2023/08/18 21:16:27;;;;;;;11.35;8.65;;;;;;;26.04;100.00;100337.06;8412059;28;20036;-61
2023/08/18 21:20:29;;;;;;;15.40;8.77;;;;;;;26.12;100.00;100345.00;8391487;28;20052;-61
2023/08/18 21:24:29;;;;;;;15.85;9.05;;;;;;;26.06;100.00;100351.53;8416131;28;20042;-61
2023/08/18 21:28:30;;;;;;;12.77;9.43;;;;;;;26.12;100.00;100346.91;8411636;28;20032;-61
2023/08/18 21:32:31;;;;;;;9.23;8.27;;;;;;;26.06;100.00;100351.53;8415760;28;20044;-61
2023/08/18 21:36:31;;;;;;;12.05;9.10;;;;;;;25.98;100.00;100343.56;8411709;28;20541;-61
2023/08/18 21:40:31;;;;;;;12.77;9.05;;;;;;;25.89;100.00;100336.69;8415736;28;20051;-61
2023/08/18 21:44:32;;;;;;;15.77;9.18;;;;;;;25.92;100.00;100341.75;8411008;28;20590;-61
2023/08/18 21:48:36;;;;;;;13.20;9.07;;;;;;;25.84;100.00;100342.16;8416588;28;20143;-61
2023/08/18 21:52:36;;;;;;;11.90;8.88;;;;;;;25.87;100.00;100344.44;8417120;28;20036;-61
2023/08/18 21:56:37;;;;;;;15.02;9.00;;;;;;;25.84;100.00;100336.59;8414016;28;20042;-61
2023/08/18 22:00:38;;;;;;;11.23;8.20;;;;;;;25.87;100.00;100346.34;8418711;28;20501;-61
2023/08/18 22:04:38;;;;;;;13.73;9.02;;;;;;;25.83;100.00;100351.53;8419108;28;20456;-61
2023/08/18 22:08:39;;;;;;;13.93;8.13;;;;;;;25.74;100.00;100349.38;8414213;28;20032;-61
2023/08/18 22:12:40;;;;;;;11.77;7.88;;;;;;;25.67;100.00;100345.91;8418415;28;20154;-61
2023/08/18 22:16:40;;;;;;;18.70;8.85;;;;;;;25.53;100.00;100328.72;8414547;28;20036;-62
2023/08/18 22:20:41;;;;;;;16.45;9.05;;;;;;;25.47;100.00;100329.69;8415453;28;20078;-59
2023/08/18 22:24:43;;;;;;;14.63;8.95;;;;;;;25.35;100.00;100330.75;8418420;28;20071;-59
2023/08/18 22:28:43;;;;;;;13.32;9.43;;;;;;;25.33;100.00;100332.91;8418261;28;20067;-59
2023/08/18 22:32:44;;;;;;;15.02;10.02;;;;;;;25.31;100.00;100326.75;8418234;28;20039;-59
2023/08/18 22:36:44;;;;;;;16.17;10.18;;;;;;;25.24;100.00;100313.03;8400454;28;20036;-59
2023/08/18 22:40:45;;;;;;;13.27;9.80;;;;;;;25.30;100.00;100317.59;8418259;28;20090;-58
2023/08/18 22:44:45;;;;;;;16.45;9.20;;;;;;;25.39;100.00;100323.63;8418410;28;20066;-59
2023/08/18 22:48:45;;;;;;;13.63;9.35;;;;;;;25.42;100.00;100326.78;8417811;28;20119;-59
2023/08/18 22:52:49;;;;;;;11.55;9.98;;;;;;;25.33;100.00;100328.22;8397664;28;20528;-60
2023/08/18 22:56:49;;;;;;;10.27;8.38;;;;;;;25.32;100.00;100326.56;8413335;28;20036;-59
2023/08/18 23:00:50;;;;;;;9.43;7.53;;;;;;;25.23;100.00;100324.34;8414300;28;20050;-59
2023/08/18 23:04:50;;;;;;;12.23;8.25;;;;;;;25.14;100.00;100323.84;8417630;28;20524;-59
2023/08/18 23:08:51;;;;;;;11.52;8.02;;;;;;;25.06;100.00;100313.13;8414021;28;20046;-59
2023/08/18 23:12:51;;;;;;;12.00;8.57;;;;;;;25.03;100.00;100316.38;8411832;28;20044;-58
2023/08/18 23:16:52;;;;;;;13.10;8.52;;;;;;;24.97;100.00;100306.25;8417629;28;20573;-56
2023/08/18 23:20:54;;;;;;;11.50;8.63;;;;;;;24.90;100.00;100305.53;8417729;28;20036;-57
2023/08/18 23:24:54;;;;;;;12.60;9.00;;;;;;;24.82;100.00;100295.66;8417742;28;20040;-56
2023/08/18 23:28:55;;;;;;;10.40;7.82;;;;;;;24.77;100.00;100301.06;8423888;28;20071;-60
2023/08/18 23:32:55;;;;;;;9.27;7.80;;;;;;;24.64;100.00;100303.19;8423761;28;20453;-60
2023/08/18 23:36:56;;;;;;;10.32;7.85;;;;;;;24.59;100.00;100292.84;8419698;28;20095;-60
2023/08/18 23:40:56;;;;;;;9.20;7.38;;;;;;;24.65;100.00;100296.59;8414981;28;20048;-60
2023/08/18 23:44:57;;;;;;;10.77;7.95;;;;;;;24.60;100.00;100300.06;8422119;28;20058;-60
2023/08/18 23:48:57;;;;;;;12.52;8.18;;;;;;;24.56;100.00;100292.47;8423649;28;20101;-61
2023/08/18 23:52:58;;;;;;;9.80;8.23;;;;;;;24.53;100.00;100298.47;8423255;28;20044;-60
2023/08/18 23:57:00;;;;;;;13.38;8.55;;;;;;;24.51;100.00;100295.94;8427826;28;20102;-62
